Portada
METAR-TAF:

METAR-TAF

Aeroports :

Accomack County Airport

Melfa, Virgínia, Estats Units d'Amèrica

latitud: 37-39N, longitud: 075-46W, altitud: 15 m

Observació

L'informe es va fer fa 5 hores i 9 minuts, a les 18:15 UTC
Vent 8 kt del Nord-Oest amb ràfegues de 15 kt
Temperatura 2°C
Humitat 51%
Pressió 1030 hPa
Visibilitat: 16.1 km
Cel ennuvolat a una alçada de 3800 ft

METAR: KMFV 131815Z AUTO 31008G15KT 10SM BKN038 02/M07 A3041 RMK AO2 T00151071

Hora: 18:24 (23:24 UTC)


TAF: manca

Observacions i pronòstics meteorològics de més de 4000 aeroports (METAR i TAF).

Les estacions disponibles són els punts grocs i vermells al mapa.

Posi el ratolí al punt desitjat per veure el nom de l'estació.

Feu clic per veure les observacions i els pronòstics meteorològics.

Per canviar el mapa: feu clic els botons verds amb una creu de color negre per apropar; al botó verd amb un guió per allunyar la imatge; o en les fletxes verdes per a mapes adjacents.


METAR-TAF: